Time;durP1;ratioP1;P1;durP2;ratioP2;P2;SDS_P1;SDS_P2;PMS_P1;PMS_P2;Temp;Humidity;BMP_temperature;BMP_pressure;BME280_temperature;BME280_humidity;BME280_pressure;Samples;Min_cycle;Max_cycle;Signal;HPM_P1;HPM_P2
2021/12/31 00:00:26;;;;;;;26.42;5.18;;;11.80;99.90;;;;;;5012687;28;20057;-31
2021/12/31 00:02:52;;;;;;;22.27;5.45;;;11.80;99.90;;;;;;4992582;28;20049;-31
2021/12/31 00:05:18;;;;;;;24.15;4.40;;;11.80;99.90;;;;;;4992709;28;20413;-31
2021/12/31 00:07:45;;;;;;;21.95;4.70;;;11.80;99.90;;;;;;4994256;28;20050;-31
2021/12/31 00:10:11;;;;;;;18.35;4.63;;;11.80;99.90;;;;;;5020152;28;20404;-31
2021/12/31 00:12:37;;;;;;;25.48;4.72;;;11.80;99.90;;;;;;5030018;28;20034;-31
2021/12/31 00:15:04;;;;;;;17.90;4.40;;;11.80;99.90;;;;;;5012643;28;20045;-31
2021/12/31 00:17:30;;;;;;;22.63;4.40;;;11.80;99.90;;;;;;4998991;28;20173;-31
2021/12/31 00:20:03;;;;;;;23.10;4.40;;;11.70;99.90;;;;;;5010669;28;20046;-31
2021/12/31 00:24:58;;;;;;;18.67;4.40;;;11.80;99.90;;;;;;4991106;28;20054;-31
2021/12/31 00:27:24;;;;;;;23.95;4.68;;;11.80;99.90;;;;;;4975565;28;20509;-31
2021/12/31 00:29:50;;;;;;;20.33;4.43;;;11.80;99.90;;;;;;5008887;28;20096;-31
2021/12/31 00:32:15;;;;;;;20.27;4.57;;;11.80;99.90;;;;;;5009865;28;20129;-31
2021/12/31 00:34:41;;;;;;;21.70;4.55;;;11.70;99.90;;;;;;5009032;28;20046;-31
2021/12/31 00:37:07;;;;;;;22.40;4.68;;;11.70;99.90;;;;;;4977163;28;20112;-31
2021/12/31 00:39:32;;;;;;;18.25;4.40;;;11.70;99.90;;;;;;5010268;28;20082;-31
2021/12/31 00:41:58;;;;;;;19.80;5.07;;;11.70;99.90;;;;;;4989200;28;20066;-31
2021/12/31 00:44:25;;;;;;;23.55;4.93;;;11.80;99.90;;;;;;4989967;28;20417;-31
2021/12/31 00:46:51;;;;;;;19.50;5.03;;;11.80;99.90;;;;;;4975190;28;20049;-31
2021/12/31 00:49:16;;;;;;;19.63;4.80;;;11.80;99.90;;;;;;4989684;28;20046;-30
2021/12/31 00:51:42;;;;;;;24.58;5.25;;;11.80;99.90;;;;;;4990286;28;20418;-31
2021/12/31 00:54:08;;;;;;;19.55;4.93;;;11.80;99.90;;;;;;4989819;28;20437;-31
2021/12/31 00:56:34;;;;;;;30.65;5.05;;;11.80;99.90;;;;;;4975309;28;20049;-31
2021/12/31 00:59:00;;;;;;;23.38;5.28;;;11.80;99.90;;;;;;4987761;28;20046;-31
2021/12/31 01:01:26;;;;;;;22.75;5.05;;;11.80;99.90;;;;;;5001612;28;20573;-31
2021/12/31 01:03:52;;;;;;;23.77;5.38;;;11.80;99.90;;;;;;4972323;28;20054;-31
2021/12/31 01:06:18;;;;;;;20.05;4.55;;;11.80;99.90;;;;;;4979684;28;20453;-31
2021/12/31 01:08:44;;;;;;;24.92;4.85;;;11.90;99.90;;;;;;4983235;28;20058;-31
2021/12/31 01:11:10;;;;;;;20.55;5.22;;;11.90;99.90;;;;;;4989874;28;20046;-31
2021/12/31 01:13:51;;;;;;;22.90;5.28;;;11.80;99.90;;;;;;4989423;28;20049;-31
2021/12/31 01:16:19;;;;;;;26.42;4.95;;;11.80;99.90;;;;;;4979082;28;20058;-31
2021/12/31 01:21:21;;;;;;;21.73;5.18;;;11.80;99.90;;;;;;4988822;28;20046;-31
2021/12/31 01:23:48;;;;;;;23.08;5.10;;;11.80;99.90;;;;;;4989083;28;20053;-31
2021/12/31 01:26:14;;;;;;;26.70;5.47;;;11.90;99.90;;;;;;4980616;28;20834;-31
2021/12/31 01:28:40;;;;;;;23.75;5.35;;;11.90;99.90;;;;;;4982407;28;20417;-31
2021/12/31 01:31:06;;;;;;;23.80;4.75;;;11.90;99.90;;;;;;4990022;28;20034;-31
2021/12/31 01:33:32;;;;;;;23.02;4.93;;;11.90;99.90;;;;;;4988844;28;20063;-31
2021/12/31 01:35:58;;;;;;;19.65;4.70;;;11.90;99.90;;;;;;4988097;28;20045;-32
2021/12/31 01:38:24;;;;;;;25.30;5.22;;;11.90;99.90;;;;;;4972510;28;20038;-31
2021/12/31 01:40:50;;;;;;;19.73;4.57;;;11.90;99.90;;;;;;4998049;28;20058;-30
2021/12/31 01:43:17;;;;;;;17.65;4.65;;;11.90;99.90;;;;;;5008595;28;20523;-31
2021/12/31 01:45:46;;;;;;;24.63;5.07;;;11.90;99.90;;;;;;4990950;28;20408;-31
2021/12/31 01:50:49;;;;;;;18.65;4.53;;;11.90;99.90;;;;;;5008579;28;20049;-31
2021/12/31 01:53:16;;;;;;;20.40;4.88;;;12.00;99.90;;;;;;5008211;28;20046;-31
2021/12/31 01:55:42;;;;;;;20.88;5.38;;;11.90;99.90;;;;;;5008739;28;20046;-31
2021/12/31 01:58:09;;;;;;;22.75;5.03;;;11.90;99.90;;;;;;4992441;28;20045;-31
2021/12/31 02:00:36;;;;;;;24.15;4.70;;;11.90;99.90;;;;;;5008749;28;20046;-31
2021/12/31 02:03:03;;;;;;;18.88;4.80;;;12.00;99.90;;;;;;5008046;28;20061;-31
2021/12/31 02:05:30;;;;;;;17.75;4.78;;;12.00;99.90;;;;;;4993385;28;20038;-31
2021/12/31 02:07:56;;;;;;;18.88;4.85;;;12.00;99.90;;;;;;4987342;28;20052;-31
2021/12/31 02:10:22;;;;;;;22.75;4.88;;;12.00;99.90;;;;;;4998534;28;20050;-31
2021/12/31 02:12:49;;;;;;;18.67;4.68;;;12.00;99.90;;;;;;5008242;28;20072;-31
2021/12/31 02:15:16;;;;;;;20.70;4.78;;;12.10;99.90;;;;;;5007364;28;20114;-31
2021/12/31 02:17:44;;;;;;;19.65;4.32;;;12.10;99.90;;;;;;4992156;28;20042;-31
2021/12/31 02:20:11;;;;;;;20.90;4.00;;;12.10;99.90;;;;;;5008470;28;20060;-31
2021/12/31 02:22:49;;;;;;;18.02;4.28;;;12.10;99.90;;;;;;5008033;28;20038;-31
2021/12/31 02:25:15;;;;;;;18.83;4.22;;;12.20;99.90;;;;;;5008237;28;20501;-31
2021/12/31 02:27:41;;;;;;;20.23;4.28;;;12.10;99.90;;;;;;4974577;28;20050;-31
2021/12/31 02:30:10;;;;;;;20.58;4.38;;;12.20;99.90;;;;;;5008267;28;20136;-31
2021/12/31 02:32:36;;;;;;;16.58;4.07;;;12.20;99.90;;;;;;5007494;28;20073;-31
2021/12/31 02:35:02;;;;;;;17.88;4.50;;;12.20;99.90;;;;;;5008442;28;20034;-31
2021/12/31 02:37:29;;;;;;;18.98;4.63;;;12.30;99.90;;;;;;4992961;28;20061;-31
2021/12/31 02:39:55;;;;;;;19.15;4.13;;;12.30;99.90;;;;;;5008220;28;20054;-31
2021/12/31 02:42:21;;;;;;;15.77;3.97;;;12.30;99.90;;;;;;5007745;28;20129;-31
2021/12/31 02:44:49;;;;;;;16.52;4.43;;;12.40;99.90;;;;;;5008306;28;20120;-31
2021/12/31 02:47:15;;;;;;;22.30;5.10;;;12.30;99.90;;;;;;4992046;28;20444;-31
2021/12/31 02:49:42;;;;;;;15.43;4.20;;;12.40;99.90;;;;;;5008100;28;20072;-32
2021/12/31 02:52:11;;;;;;;17.00;4.20;;;12.40;99.90;;;;;;5007603;28;20053;-31
2021/12/31 02:54:40;;;;;;;17.35;3.80;;;12.50;99.90;;;;;;5007977;28;20048;-31
2021/12/31 02:57:07;;;;;;;16.25;4.35;;;12.50;99.90;;;;;;4993086;28;20042;-31
2021/12/31 02:59:35;;;;;;;15.35;3.88;;;12.40;99.90;;;;;;5012189;28;20045;-31
2021/12/31 03:02:02;;;;;;;15.88;3.88;;;12.50;99.90;;;;;;5013652;28;20129;-31
2021/12/31 03:04:29;;;;;;;14.38;4.22;;;12.50;99.90;;;;;;4986663;28;20046;-31
2021/12/31 03:06:57;;;;;;;19.35;4.07;;;12.50;99.90;;;;;;4965730;28;20038;-32
2021/12/31 03:09:25;;;;;;;17.60;3.47;;;12.50;99.90;;;;;;5013868;28;20527;-31
2021/12/31 03:11:54;;;;;;;15.10;3.70;;;12.50;99.90;;;;;;5014021;28;20193;-31
2021/12/31 03:14:21;;;;;;;12.73;3.60;;;12.60;99.90;;;;;;5030754;28;20089;-31
2021/12/31 03:16:48;;;;;;;14.75;3.55;;;12.50;99.90;;;;;;5016090;28;20049;-31
2021/12/31 03:19:15;;;;;;;20.05;3.92;;;12.50;99.90;;;;;;5030486;28;20037;-31
2021/12/31 03:21:41;;;;;;;15.60;3.65;;;12.60;99.90;;;;;;5031676;28;20164;-31
2021/12/31 03:24:06;;;;;;;18.52;4.00;;;12.60;99.90;;;;;;5016769;28;20140;-31
2021/12/31 03:26:34;;;;;;;15.90;3.85;;;12.60;99.90;;;;;;4997317;28;20460;-31
2021/12/31 03:29:00;;;;;;;16.08;4.20;;;12.60;99.90;;;;;;5002445;28;20092;-31
2021/12/31 03:31:27;;;;;;;24.52;4.05;;;12.50;99.90;;;;;;5010499;28;20108;-31
2021/12/31 03:33:52;;;;;;;15.13;3.80;;;12.60;99.90;;;;;;4973703;28;20129;-31
2021/12/31 03:36:18;;;;;;;13.38;3.72;;;12.50;99.90;;;;;;4981017;28;20125;-31
2021/12/31 03:38:44;;;;;;;16.13;3.95;;;12.50;99.90;;;;;;4969288;28;20497;-31
2021/12/31 03:41:10;;;;;;;18.65;4.28;;;12.50;99.90;;;;;;4980376;28;20055;-31
2021/12/31 03:43:36;;;;;;;12.23;3.65;;;12.50;99.90;;;;;;4971694;28;20051;-30
2021/12/31 03:46:01;;;;;;;14.75;4.18;;;12.50;99.90;;;;;;4972341;28;20438;-31
2021/12/31 03:48:27;;;;;;;17.27;3.65;;;12.40;99.90;;;;;;4974806;28;20348;-31
2021/12/31 03:50:53;;;;;;;14.25;3.90;;;12.70;99.90;;;;;;4991779;28;20042;-31
2021/12/31 03:53:19;;;;;;;17.88;4.00;;;12.50;99.90;;;;;;4991008;28;20042;-31
2021/12/31 03:55:45;;;;;;;14.85;4.10;;;12.50;99.90;;;;;;4991481;28;20104;-31
2021/12/31 03:58:11;;;;;;;15.15;4.32;;;12.50;99.90;;;;;;4975099;28;20070;-30
2021/12/31 04:00:37;;;;;;;18.85;4.10;;;12.50;99.90;;;;;;4958674;28;20092;-31
2021/12/31 04:03:07;;;;;;;14.13;3.55;;;12.50;99.90;;;;;;4990804;28;20046;-31
2021/12/31 04:05:34;;;;;;;16.05;4.00;;;12.50;99.90;;;;;;4975763;28;20109;-31
2021/12/31 04:07:59;;;;;;;15.85;3.63;;;12.60;99.90;;;;;;4969494;28;20054;-31
2021/12/31 04:10:25;;;;;;;15.10;3.20;;;12.50;99.90;;;;;;4990644;28;20134;-31
2021/12/31 04:12:52;;;;;;;15.98;3.88;;;12.50;99.90;;;;;;4990658;28;20054;-31
2021/12/31 04:15:18;;;;;;;12.57;3.00;;;12.50;99.90;;;;;;4991397;28;20049;-30
2021/12/31 04:17:43;;;;;;;9.90;3.42;;;12.50;99.90;;;;;;4974657;28;20046;-31
2021/12/31 04:20:18;;;;;;;12.73;2.92;;;12.50;99.90;;;;;;4990950;28;20072;-31
2021/12/31 04:22:51;;;;;;;16.38;4.00;;;12.50;99.90;;;;;;4988954;28;20050;-31
2021/12/31 04:25:17;;;;;;;19.75;3.75;;;12.50;99.90;;;;;;4991293;28;20431;-31
2021/12/31 04:27:43;;;;;;;12.90;3.35;;;12.60;99.90;;;;;;4974317;28;20061;-31
2021/12/31 04:30:09;;;;;;;12.52;3.25;;;12.50;99.90;;;;;;4990425;28;20046;-31
2021/12/31 04:32:35;;;;;;;16.13;3.45;;;12.60;99.90;;;;;;4990756;28;20058;-31
2021/12/31 04:35:00;;;;;;;9.68;3.00;;;12.60;99.90;;;;;;4989895;28;20042;-31
2021/12/31 04:37:26;;;;;;;15.57;3.13;;;12.60;99.90;;;;;;4975769;28;20101;-31
2021/12/31 04:39:52;;;;;;;12.25;3.58;;;12.70;99.90;;;;;;4973368;28;20407;-30
2021/12/31 04:42:17;;;;;;;11.55;3.05;;;12.60;99.90;;;;;;4972169;28;20102;-31
2021/12/31 04:44:43;;;;;;;11.95;2.80;;;12.70;99.90;;;;;;4990701;28;20050;-31
2021/12/31 04:47:09;;;;;;;11.82;2.80;;;12.70;99.90;;;;;;4982505;28;20042;-31
2021/12/31 04:49:35;;;;;;;15.10;3.20;;;12.70;99.90;;;;;;5010065;28;20129;-31
2021/12/31 04:52:00;;;;;;;12.07;3.15;;;12.70;99.90;;;;;;5010096;28;20050;-31
2021/12/31 04:54:26;;;;;;;12.52;2.72;;;12.80;99.90;;;;;;4991847;28;20421;-31
2021/12/31 04:56:54;;;;;;;10.75;2.72;;;12.80;99.90;;;;;;4994323;28;20057;-31
2021/12/31 04:59:20;;;;;;;15.18;3.47;;;12.80;99.90;;;;;;5008985;28;20398;-31
2021/12/31 05:01:47;;;;;;;11.13;2.67;;;12.80;99.90;;;;;;5010055;28;20168;-31
2021/12/31 05:04:14;;;;;;;13.23;3.00;;;12.80;99.90;;;;;;5003878;28;20042;-31
2021/12/31 05:06:40;;;;;;;10.63;2.65;;;12.80;99.90;;;;;;4963755;28;20148;-31
2021/12/31 05:09:06;;;;;;;11.30;3.38;;;12.80;99.90;;;;;;5006318;28;20428;-30
2021/12/31 05:11:32;;;;;;;11.13;2.95;;;12.80;99.90;;;;;;5007026;28;20046;-31
2021/12/31 05:13:58;;;;;;;9.20;3.03;;;12.70;99.90;;;;;;5008935;28;20084;-30
2021/12/31 05:16:23;;;;;;;12.07;3.10;;;12.80;99.90;;;;;;4996809;28;20505;-31
2021/12/31 05:18:49;;;;;;;9.63;2.80;;;12.80;99.90;;;;;;5005581;28;20057;-31
2021/12/31 05:21:15;;;;;;;7.95;2.80;;;12.80;99.90;;;;;;5009041;28;20053;-30
2021/12/31 05:23:40;;;;;;;10.20;2.63;;;12.70;99.90;;;;;;5008805;28;20498;-31
2021/12/31 05:26:06;;;;;;;8.50;2.55;;;12.80;99.90;;;;;;5004762;28;20489;-31
2021/12/31 05:28:34;;;;;;;7.85;2.40;;;12.80;99.90;;;;;;4998033;28;20052;-31
2021/12/31 05:31:00;;;;;;;7.70;2.75;;;12.80;99.90;;;;;;5009338;28;20049;-31
2021/12/31 05:33:25;;;;;;;8.98;2.40;;;12.80;99.90;;;;;;5008861;28;20042;-31
2021/12/31 05:35:51;;;;;;;8.25;2.85;;;12.70;99.90;;;;;;5009080;28;20125;-31
2021/12/31 05:38:17;;;;;;;8.85;2.70;;;12.70;99.90;;;;;;4994140;28;20081;-31
2021/12/31 05:40:42;;;;;;;6.22;2.30;;;12.70;99.90;;;;;;5009093;28;20046;-31
2021/12/31 05:43:08;;;;;;;10.90;2.90;;;12.70;99.90;;;;;;5008333;28;20537;-30
2021/12/31 05:45:34;;;;;;;8.82;2.83;;;12.70;99.90;;;;;;5008593;28;20052;-31
2021/12/31 05:48:00;;;;;;;8.55;2.50;;;12.70;99.90;;;;;;4992634;28;20460;-31
2021/12/31 05:50:28;;;;;;;8.63;2.50;;;12.70;99.90;;;;;;5009491;28;20046;-31
2021/12/31 05:52:58;;;;;;;6.55;2.13;;;12.60;99.90;;;;;;5008270;28;20050;-30
2021/12/31 05:55:24;;;;;;;9.38;2.30;;;12.60;99.90;;;;;;5009160;28;20046;-31
2021/12/31 05:57:50;;;;;;;7.80;2.22;;;12.60;99.90;;;;;;4974774;28;20408;-31
2021/12/31 06:00:17;;;;;;;9.70;2.08;;;12.60;99.90;;;;;;5009222;28;20037;-31
2021/12/31 06:02:43;;;;;;;5.05;2.13;;;12.60;99.90;;;;;;5007887;28;20453;-31
2021/12/31 06:05:09;;;;;;;4.78;2.28;;;12.60;99.90;;;;;;4996336;28;20050;-31
2021/12/31 06:07:35;;;;;;;7.32;2.53;;;12.60;99.90;;;;;;4984215;28;20470;-31
2021/12/31 06:10:00;;;;;;;5.72;2.03;;;12.70;99.90;;;;;;5008651;28;20076;-31
2021/12/31 06:12:27;;;;;;;6.82;2.15;;;12.70;99.90;;;;;;5008053;28;20124;-31
2021/12/31 06:14:54;;;;;;;5.60;1.85;;;12.70;99.90;;;;;;5008758;28;20042;-31
2021/12/31 06:17:25;;;;;;;5.88;2.28;;;12.70;99.90;;;;;;4992318;28;20057;-31
2021/12/31 06:19:52;;;;;;;6.80;2.10;;;12.70;99.90;;;;;;5009081;28;20072;-30
2021/12/31 06:22:22;;;;;;;5.78;2.17;;;12.70;99.90;;;;;;5006318;28;20108;-31
2021/12/31 06:24:48;;;;;;;6.43;1.80;;;12.70;99.90;;;;;;4989027;28;20054;-30
2021/12/31 06:27:14;;;;;;;9.07;2.33;;;12.70;99.90;;;;;;4972543;28;20511;-31
2021/12/31 06:29:39;;;;;;;7.68;2.28;;;12.70;99.90;;;;;;5007536;28;20077;-31
2021/12/31 06:32:05;;;;;;;6.30;1.90;;;12.70;99.90;;;;;;5007126;28;20034;-31
2021/12/31 06:34:31;;;;;;;5.28;2.08;;;12.70;99.90;;;;;;5008345;28;20051;-30
2021/12/31 06:36:57;;;;;;;6.00;1.70;;;12.70;99.90;;;;;;4992969;28;20046;-31
2021/12/31 06:39:25;;;;;;;5.78;2.42;;;12.70;99.90;;;;;;5008241;28;20090;-31
2021/12/31 06:41:51;;;;;;;8.10;2.10;;;12.70;99.90;;;;;;5007675;28;20054;-30
2021/12/31 06:44:18;;;;;;;6.35;1.90;;;12.60;99.90;;;;;;4989641;28;20502;-31
2021/12/31 06:46:43;;;;;;;6.20;2.08;;;12.70;99.90;;;;;;4992674;28;20111;-31
2021/12/31 06:49:09;;;;;;;7.25;2.05;;;12.60;99.90;;;;;;4982350;28;20360;-31
2021/12/31 06:51:35;;;;;;;7.22;2.00;;;12.70;99.90;;;;;;4970921;28;20529;-31
2021/12/31 06:54:00;;;;;;;5.57;1.95;;;12.70;99.90;;;;;;4987017;28;20042;-31
2021/12/31 06:56:26;;;;;;;6.40;1.95;;;12.70;99.90;;;;;;4976428;28;20548;-31
2021/12/31 06:58:52;;;;;;;6.07;2.08;;;12.70;99.90;;;;;;4984435;28;20057;-31
2021/12/31 07:01:17;;;;;;;5.07;1.92;;;12.60;99.90;;;;;;4998210;28;20349;-31
2021/12/31 07:03:43;;;;;;;7.45;1.83;;;12.60;99.90;;;;;;4988586;28;20045;-31
2021/12/31 07:06:09;;;;;;;5.45;1.88;;;12.60;99.90;;;;;;4980414;28;20113;-30
2021/12/31 07:08:35;;;;;;;7.97;2.33;;;12.60;99.90;;;;;;4999219;28;20060;-30
2021/12/31 07:11:01;;;;;;;9.25;2.22;;;12.60;99.90;;;;;;5004697;28;21716;-30
2021/12/31 07:13:26;;;;;;;9.02;1.80;;;12.60;99.90;;;;;;4995801;28;20061;-31
2021/12/31 07:15:54;;;;;;;5.35;2.00;;;12.60;99.90;;;;;;4986268;28;20054;-31
2021/12/31 07:18:22;;;;;;;6.10;1.77;;;12.60;99.90;;;;;;4970897;28;20046;-30
2021/12/31 07:20:47;;;;;;;8.50;2.13;;;12.60;99.90;;;;;;4988541;28;20054;-31
2021/12/31 07:23:17;;;;;;;3.45;1.75;;;12.60;99.90;;;;;;4998168;28;20149;-31
2021/12/31 07:25:43;;;;;;;7.18;2.22;;;12.60;99.90;;;;;;5007931;28;20041;-30
2021/12/31 07:28:11;;;;;;;4.22;1.65;;;12.60;99.90;;;;;;4991473;28;20096;-30
2021/12/31 07:30:38;;;;;;;6.72;2.08;;;12.50;99.90;;;;;;5007571;28;20081;-31
2021/12/31 07:33:04;;;;;;;5.22;1.55;;;12.50;99.90;;;;;;4989457;28;20489;-30
2021/12/31 07:35:31;;;;;;;7.18;1.95;;;12.50;99.90;;;;;;5007490;28;20500;-31
2021/12/31 07:37:59;;;;;;;3.90;2.10;;;12.40;99.90;;;;;;4974059;28;20057;-30
2021/12/31 07:40:47;;;;;;;4.78;1.80;;;12.30;99.90;;;;;;5007723;28;20057;-31
2021/12/31 07:43:14;;;;;;;5.65;1.98;;;12.30;99.90;;;;;;5007405;28;20045;-30
2021/12/31 07:45:40;;;;;;;6.53;1.98;;;12.30;99.90;;;;;;5011614;28;20053;-31
2021/12/31 07:48:06;;;;;;;5.45;1.60;;;12.30;99.90;;;;;;4994852;28;20046;-31
2021/12/31 07:50:32;;;;;;;5.10;2.13;;;12.30;99.90;;;;;;4993835;28;20054;-30
2021/12/31 07:52:58;;;;;;;8.00;2.13;;;12.10;99.90;;;;;;5009988;28;20046;-31
2021/12/31 07:55:24;;;;;;;6.57;2.08;;;12.20;99.90;;;;;;5011091;28;20127;-30
2021/12/31 07:57:50;;;;;;;5.68;2.30;;;12.20;99.90;;;;;;4994714;28;20069;-31
2021/12/31 08:00:16;;;;;;;5.43;2.03;;;12.20;99.90;;;;;;5010877;28;20080;-30
2021/12/31 08:02:42;;;;;;;4.50;1.80;;;12.20;99.90;;;;;;5010155;28;20111;-31
2021/12/31 08:05:08;;;;;;;5.50;2.25;;;12.20;99.90;;;;;;5010767;28;20038;-31
2021/12/31 08:07:34;;;;;;;4.75;2.10;;;12.20;99.90;;;;;;4960401;28;20472;-31
2021/12/31 08:10:01;;;;;;;5.25;1.77;;;12.20;99.90;;;;;;5010670;28;20128;-31
2021/12/31 08:12:28;;;;;;;9.57;2.17;;;12.20;99.90;;;;;;5010160;28;20129;-30
2021/12/31 08:14:53;;;;;;;4.20;1.85;;;12.20;99.90;;;;;;5011270;28;20451;-30
2021/12/31 08:17:19;;;;;;;5.03;1.58;;;12.20;99.90;;;;;;4994241;28;20101;-31
2021/12/31 08:19:45;;;;;;;6.18;2.08;;;12.20;99.90;;;;;;5010745;28;20063;-31
2021/12/31 08:22:10;;;;;;;5.15;2.00;;;12.20;99.90;;;;;;5006947;28;20335;-30
2021/12/31 08:24:36;;;;;;;6.78;1.80;;;12.30;99.90;;;;;;4994846;28;20038;-31
2021/12/31 08:27:02;;;;;;;5.28;2.05;;;12.20;99.90;;;;;;4976446;28;20530;-30
2021/12/31 08:29:27;;;;;;;8.18;2.30;;;12.30;99.90;;;;;;4996664;28;20295;-30
2021/12/31 08:31:53;;;;;;;5.68;1.90;;;12.30;99.90;;;;;;4973105;28;20056;-30
2021/12/31 08:34:19;;;;;;;6.30;2.15;;;12.30;99.90;;;;;;4988182;28;20066;-31
2021/12/31 08:36:44;;;;;;;8.07;2.10;;;12.30;99.90;;;;;;4977588;28;20072;-30
2021/12/31 08:39:10;;;;;;;6.75;2.10;;;12.30;99.90;;;;;;5003769;28;20046;-31
2021/12/31 08:41:40;;;;;;;4.97;1.98;;;12.30;99.90;;;;;;4985542;28;20055;-31
2021/12/31 08:44:07;;;;;;;11.90;2.85;;;12.30;99.90;;;;;;4969728;28;20046;-30
2021/12/31 08:46:34;;;;;;;6.28;1.88;;;12.30;99.90;;;;;;4959784;28;20064;-30
2021/12/31 08:49:00;;;;;;;6.43;2.10;;;12.30;99.90;;;;;;4967944;28;20050;-31
2021/12/31 08:51:27;;;;;;;8.43;2.20;;;12.30;99.90;;;;;;4970865;28;20030;-30
2021/12/31 08:53:54;;;;;;;4.72;2.38;;;12.30;99.90;;;;;;4952161;28;20077;-30
2021/12/31 08:56:20;;;;;;;7.88;2.00;;;12.30;99.90;;;;;;4973216;28;20056;-30
2021/12/31 08:58:45;;;;;;;7.80;2.30;;;12.30;99.90;;;;;;4967249;28;20046;-30
2021/12/31 09:01:11;;;;;;;9.73;2.40;;;12.30;99.90;;;;;;4987337;28;20034;-30
2021/12/31 09:03:37;;;;;;;5.13;1.98;;;12.30;99.90;;;;;;4988363;28;20049;-31
2021/12/31 09:06:02;;;;;;;6.18;2.38;;;12.30;99.90;;;;;;4968889;28;20046;-31
2021/12/31 09:08:29;;;;;;;6.22;2.50;;;12.30;99.90;;;;;;4964714;28;20055;-31
2021/12/31 09:10:55;;;;;;;5.97;2.55;;;12.30;99.90;;;;;;4973582;28;20046;-31
2021/12/31 09:13:20;;;;;;;9.02;4.72;;;12.20;99.90;;;;;;4971646;28;20038;-31
2021/12/31 09:15:47;;;;;;;10.18;3.13;;;12.30;99.90;;;;;;4969984;28;20057;-30
2021/12/31 09:18:13;;;;;;;6.95;2.72;;;12.30;99.90;;;;;;4956437;28;20399;-31
2021/12/31 09:20:40;;;;;;;6.47;3.05;;;12.20;99.90;;;;;;4969941;28;20062;-30
2021/12/31 09:23:06;;;;;;;12.88;3.25;;;12.30;99.90;;;;;;4961306;28;20116;-31
2021/12/31 09:25:32;;;;;;;7.72;3.03;;;12.20;99.90;;;;;;4971991;28;20053;-31
2021/12/31 09:27:57;;;;;;;7.72;2.80;;;12.20;99.90;;;;;;4968126;28;20055;-30
2021/12/31 09:30:23;;;;;;;7.00;2.55;;;12.20;99.90;;;;;;4988587;28;20076;-31
2021/12/31 09:32:49;;;;;;;9.90;2.95;;;12.20;99.90;;;;;;4988747;28;20157;-31
2021/12/31 09:35:14;;;;;;;8.95;2.90;;;12.20;99.90;;;;;;4989727;28;20549;-30
2021/12/31 09:37:40;;;;;;;7.63;3.17;;;12.20;99.90;;;;;;4973686;28;20390;-30
2021/12/31 09:40:08;;;;;;;8.30;2.85;;;12.20;99.90;;;;;;4989484;28;20129;-30
2021/12/31 09:42:34;;;;;;;8.27;2.63;;;12.20;99.90;;;;;;4983305;28;20038;-31
2021/12/31 09:45:00;;;;;;;9.57;3.28;;;12.20;99.90;;;;;;5009027;28;20057;-30
2021/12/31 09:47:25;;;;;;;9.88;2.72;;;12.20;99.90;;;;;;4991761;28;20108;-30
2021/12/31 09:49:51;;;;;;;9.98;3.03;;;12.10;99.90;;;;;;4988142;28;20042;-31
2021/12/31 09:52:18;;;;;;;6.15;2.58;;;12.10;99.90;;;;;;4985394;28;20046;-31
2021/12/31 09:54:48;;;;;;;9.80;2.95;;;12.20;99.90;;;;;;4986499;28;20042;-30
2021/12/31 09:57:19;;;;;;;8.07;3.20;;;12.20;99.90;;;;;;4970939;28;20465;-31
2021/12/31 09:59:46;;;;;;;7.97;3.33;;;12.20;99.90;;;;;;4988444;28;20108;-31
2021/12/31 10:02:12;;;;;;;5.82;2.47;;;12.10;99.90;;;;;;5007104;28;20531;-30
2021/12/31 10:05:00;;;;;;;12.35;3.30;;;12.10;99.90;;;;;;4979801;28;20534;-31
2021/12/31 10:07:28;;;;;;;9.20;3.17;;;12.10;99.90;;;;;;4980743;28;20049;-30
2021/12/31 10:10:15;;;;;;;11.45;3.65;;;12.10;99.90;;;;;;5013045;28;20049;-31
2021/12/31 10:12:52;;;;;;;9.95;3.20;;;12.00;99.90;;;;;;5007265;28;20475;-31
2021/12/31 10:15:20;;;;;;;10.45;3.53;;;12.00;99.90;;;;;;5007602;28;20041;-30
2021/12/31 10:17:46;;;;;;;14.02;3.72;;;11.90;99.90;;;;;;5006018;28;20270;-30
2021/12/31 10:20:13;;;;;;;11.18;3.47;;;12.00;99.90;;;;;;4986031;28;20637;-30
2021/12/31 10:22:39;;;;;;;11.90;3.70;;;11.90;99.90;;;;;;4988054;28;20212;-31
2021/12/31 10:25:35;;;;;;;8.65;3.50;;;11.80;99.90;;;;;;4988241;28;20560;-30
2021/12/31 10:28:12;;;;;;;13.82;4.03;;;11.90;99.90;;;;;;4982289;28;20068;-30
2021/12/31 10:30:39;;;;;;;9.50;3.47;;;11.80;99.90;;;;;;4987200;28;20050;-31
2021/12/31 10:33:05;;;;;;;9.38;3.72;;;11.90;99.90;;;;;;4993036;28;20054;-30
2021/12/31 10:35:42;;;;;;;11.88;5.53;;;11.80;99.90;;;;;;4985669;28;20174;-30
2021/12/31 10:38:11;;;;;;;11.45;4.57;;;11.80;99.90;;;;;;4989840;28;20050;-30
2021/12/31 10:40:43;;;;;;;12.27;4.15;;;11.80;99.90;;;;;;4988005;28;20103;-30
2021/12/31 10:43:17;;;;;;;12.63;5.30;;;11.80;99.90;;;;;;4983593;28;20390;-30
2021/12/31 10:46:11;;;;;;;10.10;3.90;;;11.80;99.90;;;;;;4985907;28;20136;-31
2021/12/31 10:49:03;;;;;;;8.40;3.70;;;11.80;99.90;;;;;;4977564;28;20064;-30
2021/12/31 10:51:41;;;;;;;9.52;4.05;;;11.80;99.90;;;;;;4986058;28;20050;-30
2021/12/31 10:54:37;;;;;;;11.00;4.00;;;11.80;99.90;;;;;;4985333;28;20310;-31
2021/12/31 10:57:03;;;;;;;10.35;4.07;;;11.80;99.90;;;;;;4970383;28;20051;-31
2021/12/31 10:59:33;;;;;;;15.68;4.60;;;11.80;99.90;;;;;;4986386;28;20044;-30
2021/12/31 11:02:00;;;;;;;13.95;4.07;;;11.80;99.90;;;;;;4987001;28;20525;-31
2021/12/31 11:04:28;;;;;;;12.65;3.72;;;11.80;99.90;;;;;;4977623;28;20042;-30
2021/12/31 11:06:55;;;;;;;10.70;4.22;;;11.80;99.90;;;;;;4950751;28;20198;-30
2021/12/31 11:09:24;;;;;;;9.77;3.90;;;11.80;99.90;;;;;;4967339;28;20037;-30
2021/12/31 11:11:52;;;;;;;10.48;4.10;;;11.80;99.90;;;;;;4965989;28;20082;-30
2021/12/31 11:14:18;;;;;;;15.77;4.65;;;11.80;99.90;;;;;;4964771;28;20046;-31
2021/12/31 11:16:44;;;;;;;11.65;4.40;;;11.70;99.90;;;;;;4953603;28;20046;-30
2021/12/31 11:19:12;;;;;;;11.48;4.70;;;11.70;99.90;;;;;;4987567;28;20046;-30
2021/12/31 11:21:39;;;;;;;13.95;4.95;;;11.70;99.90;;;;;;4970847;28;20268;-30
2021/12/31 11:24:40;;;;;;;12.63;4.55;;;11.70;99.90;;;;;;4971212;28;20058;-31
2021/12/31 11:27:31;;;;;;;12.60;5.05;;;11.70;99.90;;;;;;4975987;28;20493;-31
2021/12/31 11:29:59;;;;;;;9.35;4.07;;;11.70;99.90;;;;;;4976131;28;20074;-31
2021/12/31 11:33:10;;;;;;;10.05;4.50;;;11.70;99.90;;;;;;4988743;28;20074;-31
2021/12/31 11:35:42;;;;;;;11.95;4.35;;;11.70;99.90;;;;;;4945507;29;20046;-30
2021/12/31 11:38:28;;;;;;;12.02;4.40;;;11.60;99.90;;;;;;4966333;28;20548;-31
2021/12/31 11:41:24;;;;;;;13.30;4.40;;;11.60;99.90;;;;;;4919523;28;20046;-31
2021/12/31 11:44:11;;;;;;;15.07;5.05;;;11.60;99.90;;;;;;4985769;28;20561;-30
2021/12/31 11:46:38;;;;;;;11.13;4.78;;;11.50;99.90;;;;;;4966977;28;20042;-30
2021/12/31 11:49:16;;;;;;;9.13;4.50;;;11.50;99.90;;;;;;4979488;28;20497;-31
2021/12/31 11:52:02;;;;;;;9.43;4.57;;;11.50;99.90;;;;;;4984393;28;20422;-31
2021/12/31 11:54:29;;;;;;;9.35;5.65;;;11.50;99.90;;;;;;4986704;28;20046;-31
2021/12/31 11:56:57;;;;;;;12.13;5.60;;;11.50;99.90;;;;;;4971801;28;20180;-30
2021/12/31 11:59:35;;;;;;;11.63;4.63;;;11.40;99.90;;;;;;4983436;28;20053;-31
2021/12/31 12:02:18;;;;;;;12.30;4.90;;;11.40;99.90;;;;;;4979072;28;20050;-30
2021/12/31 12:04:59;;;;;;;13.03;4.97;;;11.40;99.90;;;;;;4978726;28;20047;-30
2021/12/31 12:07:35;;;;;;;7.75;3.42;;;11.40;99.90;;;;;;4961994;28;20517;-31
2021/12/31 12:10:01;;;;;;;11.03;5.33;;;11.40;99.90;;;;;;4985139;28;20061;-31
2021/12/31 12:12:29;;;;;;;8.88;4.20;;;11.40;99.90;;;;;;4981512;28;20054;-30
2021/12/31 12:14:57;;;;;;;9.02;4.57;;;11.40;99.90;;;;;;4968067;28;20062;-30
2021/12/31 12:17:29;;;;;;;6.47;3.97;;;11.40;99.90;;;;;;4970604;28;20101;-31
2021/12/31 12:19:57;;;;;;;9.43;3.93;;;11.40;99.90;;;;;;4985766;28;20104;-30
2021/12/31 12:22:32;;;;;;;8.00;3.67;;;11.50;99.90;;;;;;4985973;28;20610;-31
2021/12/31 12:25:00;;;;;;;7.63;3.85;;;11.50;99.90;;;;;;4986729;28;20057;-31
2021/12/31 12:27:27;;;;;;;12.23;3.92;;;11.50;99.90;;;;;;4952644;28;20157;-31
2021/12/31 12:29:55;;;;;;;9.10;4.05;;;11.50;99.90;;;;;;4972988;28;20053;-31
2021/12/31 12:34:59;;;;;;;13.30;4.53;;;11.50;99.90;;;;;;4986034;28;20050;-31
2021/12/31 12:37:29;;;;;;;9.82;4.30;;;11.50;99.90;;;;;;4969547;28;20520;-31
2021/12/31 12:39:59;;;;;;;10.38;4.32;;;11.50;99.90;;;;;;4985556;28;20039;-30
2021/12/31 12:42:25;;;;;;;8.77;4.33;;;11.50;99.90;;;;;;4984426;28;20725;-30
2021/12/31 12:45:01;;;;;;;9.15;4.10;;;11.50;99.90;;;;;;4994261;28;20451;-30
2021/12/31 12:47:27;;;;;;;7.97;3.50;;;11.50;99.90;;;;;;4952265;28;20495;-30
2021/12/31 12:50:00;;;;;;;5.95;3.03;;;11.50;99.90;;;;;;4968738;28;20062;-31
2021/12/31 12:52:26;;;;;;;6.17;3.23;;;11.50;99.90;;;;;;4985720;28;20418;-31
2021/12/31 12:55:17;;;;;;;8.75;3.50;;;11.50;99.90;;;;;;4986626;28;20560;-31